sensor_id;sensor_type;location;lat;lon;timestamp;P1;durP1;ratioP1;P2;durP2;ratioP2
8654;SDS011;13500;52.514;13.462;2023-12-29T00:00:22;3.63;;;1.90;;
8654;SDS011;13500;52.514;13.462;2023-12-29T00:02:51;2.73;;;2.03;;
8654;SDS011;13500;52.514;13.462;2023-12-29T00:05:19;3.07;;;2.10;;
8654;SDS011;13500;52.514;13.462;2023-12-29T00:07:48;3.43;;;2.10;;
8654;SDS011;13500;52.514;13.462;2023-12-29T00:10:16;3.20;;;1.80;;
8654;SDS011;13500;52.514;13.462;2023-12-29T00:12:46;5.30;;;2.40;;
8654;SDS011;13500;52.514;13.462;2023-12-29T00:15:18;3.63;;;2.20;;
8654;SDS011;13500;52.514;13.462;2023-12-29T00:17:46;2.47;;;2.03;;
8654;SDS011;13500;52.514;13.462;2023-12-29T00:20:19;2.90;;;2.20;;
8654;SDS011;13500;52.514;13.462;2023-12-29T00:23:03;3.77;;;2.40;;
8654;SDS011;13500;52.514;13.462;2023-12-29T00:25:32;3.90;;;2.43;;
8654;SDS011;13500;52.514;13.462;2023-12-29T00:28:02;4.80;;;2.47;;
8654;SDS011;13500;52.514;13.462;2023-12-29T00:30:32;4.60;;;2.13;;
8654;SDS011;13500;52.514;13.462;2023-12-29T00:33:21;2.70;;;1.90;;
8654;SDS011;13500;52.514;13.462;2023-12-29T00:35:57;3.13;;;2.40;;
8654;SDS011;13500;52.514;13.462;2023-12-29T00:38:29;4.23;;;2.27;;
8654;SDS011;13500;52.514;13.462;2023-12-29T00:40:57;3.50;;;1.90;;
8654;SDS011;13500;52.514;13.462;2023-12-29T00:43:26;4.20;;;2.10;;
8654;SDS011;13500;52.514;13.462;2023-12-29T00:45:56;3.37;;;1.97;;
8654;SDS011;13500;52.514;13.462;2023-12-29T00:48:25;2.80;;;2.00;;
8654;SDS011;13500;52.514;13.462;2023-12-29T00:50:54;3.73;;;2.10;;
8654;SDS011;13500;52.514;13.462;2023-12-29T00:53:22;3.53;;;2.00;;
8654;SDS011;13500;52.514;13.462;2023-12-29T00:55:50;4.17;;;2.00;;
8654;SDS011;13500;52.514;13.462;2023-12-29T00:58:19;3.63;;;2.00;;
8654;SDS011;13500;52.514;13.462;2023-12-29T01:00:52;4.17;;;1.80;;
8654;SDS011;13500;52.514;13.462;2023-12-29T01:03:22;2.90;;;1.83;;
8654;SDS011;13500;52.514;13.462;2023-12-29T01:05:52;2.57;;;1.80;;
8654;SDS011;13500;52.514;13.462;2023-12-29T01:08:21;3.70;;;2.13;;
8654;SDS011;13500;52.514;13.462;2023-12-29T01:10:49;2.83;;;1.70;;
8654;SDS011;13500;52.514;13.462;2023-12-29T01:13:21;2.70;;;1.70;;
8654;SDS011;13500;52.514;13.462;2023-12-29T01:15:50;3.67;;;1.77;;
8654;SDS011;13500;52.514;13.462;2023-12-29T01:18:19;3.07;;;1.70;;
8654;SDS011;13500;52.514;13.462;2023-12-29T01:20:52;2.77;;;1.67;;
8654;SDS011;13500;52.514;13.462;2023-12-29T01:23:21;3.07;;;1.83;;
8654;SDS011;13500;52.514;13.462;2023-12-29T01:25:49;3.70;;;1.97;;
8654;SDS011;13500;52.514;13.462;2023-12-29T01:28:19;4.40;;;1.90;;
8654;SDS011;13500;52.514;13.462;2023-12-29T01:30:47;2.47;;;1.60;;
8654;SDS011;13500;52.514;13.462;2023-12-29T01:33:16;2.57;;;1.70;;
8654;SDS011;13500;52.514;13.462;2023-12-29T01:35:46;5.40;;;1.97;;
8654;SDS011;13500;52.514;13.462;2023-12-29T01:38:16;4.20;;;1.90;;
8654;SDS011;13500;52.514;13.462;2023-12-29T01:40:44;2.23;;;1.50;;
8654;SDS011;13500;52.514;13.462;2023-12-29T01:43:15;2.77;;;1.60;;
8654;SDS011;13500;52.514;13.462;2023-12-29T01:45:44;4.33;;;2.23;;
8654;SDS011;13500;52.514;13.462;2023-12-29T01:48:26;3.30;;;1.90;;
8654;SDS011;13500;52.514;13.462;2023-12-29T01:50:57;3.87;;;1.90;;
8654;SDS011;13500;52.514;13.462;2023-12-29T01:53:27;2.67;;;1.87;;
8654;SDS011;13500;52.514;13.462;2023-12-29T01:56:13;3.27;;;1.90;;
8654;SDS011;13500;52.514;13.462;2023-12-29T01:58:42;2.23;;;1.83;;
8654;SDS011;13500;52.514;13.462;2023-12-29T02:01:12;2.93;;;1.70;;
8654;SDS011;13500;52.514;13.462;2023-12-29T02:03:42;4.53;;;1.80;;
8654;SDS011;13500;52.514;13.462;2023-12-29T02:06:13;2.30;;;1.60;;
8654;SDS011;13500;52.514;13.462;2023-12-29T02:08:44;2.40;;;1.60;;
8654;SDS011;13500;52.514;13.462;2023-12-29T02:11:14;4.37;;;1.90;;
8654;SDS011;13500;52.514;13.462;2023-12-29T02:13:44;3.90;;;2.07;;
8654;SDS011;13500;52.514;13.462;2023-12-29T02:16:16;4.60;;;1.90;;
8654;SDS011;13500;52.514;13.462;2023-12-29T02:18:47;4.03;;;2.00;;
8654;SDS011;13500;52.514;13.462;2023-12-29T02:21:22;3.07;;;1.77;;
8654;SDS011;13500;52.514;13.462;2023-12-29T02:23:54;2.97;;;1.70;;
8654;SDS011;13500;52.514;13.462;2023-12-29T02:26:25;4.73;;;1.77;;
8654;SDS011;13500;52.514;13.462;2023-12-29T02:28:57;2.43;;;1.63;;
8654;SDS011;13500;52.514;13.462;2023-12-29T02:31:29;2.70;;;1.63;;
8654;SDS011;13500;52.514;13.462;2023-12-29T02:34:01;2.37;;;1.90;;
8654;SDS011;13500;52.514;13.462;2023-12-29T02:36:33;3.40;;;1.67;;
8654;SDS011;13500;52.514;13.462;2023-12-29T02:39:09;3.37;;;1.70;;
8654;SDS011;13500;52.514;13.462;2023-12-29T02:41:41;3.00;;;1.80;;
8654;SDS011;13500;52.514;13.462;2023-12-29T02:44:12;2.63;;;1.90;;
8654;SDS011;13500;52.514;13.462;2023-12-29T02:46:41;1.93;;;1.53;;
8654;SDS011;13500;52.514;13.462;2023-12-29T02:49:09;2.07;;;1.80;;
8654;SDS011;13500;52.514;13.462;2023-12-29T02:51:42;2.90;;;1.87;;
8654;SDS011;13500;52.514;13.462;2023-12-29T02:54:12;3.80;;;1.50;;
8654;SDS011;13500;52.514;13.462;2023-12-29T02:56:42;3.87;;;2.03;;
8654;SDS011;13500;52.514;13.462;2023-12-29T02:59:10;2.40;;;1.70;;
8654;SDS011;13500;52.514;13.462;2023-12-29T03:01:39;2.33;;;1.50;;
8654;SDS011;13500;52.514;13.462;2023-12-29T03:04:10;2.43;;;2.17;;
8654;SDS011;13500;52.514;13.462;2023-12-29T03:06:40;2.80;;;1.70;;
8654;SDS011;13500;52.514;13.462;2023-12-29T03:09:09;2.53;;;1.73;;
8654;SDS011;13500;52.514;13.462;2023-12-29T03:11:38;2.33;;;1.70;;
8654;SDS011;13500;52.514;13.462;2023-12-29T03:14:08;3.17;;;1.97;;
8654;SDS011;13500;52.514;13.462;2023-12-29T03:16:39;1.70;;;1.60;;
8654;SDS011;13500;52.514;13.462;2023-12-29T03:19:11;1.70;;;1.60;;
8654;SDS011;13500;52.514;13.462;2023-12-29T03:21:40;2.10;;;1.90;;
8654;SDS011;13500;52.514;13.462;2023-12-29T03:24:09;2.13;;;1.53;;
8654;SDS011;13500;52.514;13.462;2023-12-29T03:26:37;2.70;;;1.80;;
8654;SDS011;13500;52.514;13.462;2023-12-29T03:29:10;1.53;;;1.43;;
8654;SDS011;13500;52.514;13.462;2023-12-29T03:31:40;2.57;;;1.70;;
8654;SDS011;13500;52.514;13.462;2023-12-29T03:34:08;2.30;;;1.57;;
8654;SDS011;13500;52.514;13.462;2023-12-29T03:36:37;2.20;;;1.80;;
8654;SDS011;13500;52.514;13.462;2023-12-29T03:39:08;1.97;;;1.70;;
8654;SDS011;13500;52.514;13.462;2023-12-29T03:41:36;2.87;;;1.60;;
8654;SDS011;13500;52.514;13.462;2023-12-29T03:44:07;2.07;;;1.57;;
8654;SDS011;13500;52.514;13.462;2023-12-29T03:46:36;3.87;;;1.67;;
8654;SDS011;13500;52.514;13.462;2023-12-29T03:49:05;1.70;;;1.53;;
8654;SDS011;13500;52.514;13.462;2023-12-29T03:51:33;1.70;;;1.43;;
8654;SDS011;13500;52.514;13.462;2023-12-29T03:54:02;2.33;;;1.70;;
8654;SDS011;13500;52.514;13.462;2023-12-29T03:56:31;2.13;;;1.50;;
8654;SDS011;13500;52.514;13.462;2023-12-29T03:59:01;1.73;;;1.43;;
8654;SDS011;13500;52.514;13.462;2023-12-29T04:01:32;2.00;;;1.50;;
8654;SDS011;13500;52.514;13.462;2023-12-29T04:04:02;1.90;;;1.53;;
8654;SDS011;13500;52.514;13.462;2023-12-29T04:06:31;3.30;;;1.80;;
8654;SDS011;13500;52.514;13.462;2023-12-29T04:09:03;3.90;;;1.73;;
8654;SDS011;13500;52.514;13.462;2023-12-29T04:11:32;2.50;;;1.67;;
8654;SDS011;13500;52.514;13.462;2023-12-29T04:14:04;1.90;;;1.60;;
8654;SDS011;13500;52.514;13.462;2023-12-29T04:16:36;2.13;;;1.30;;
8654;SDS011;13500;52.514;13.462;2023-12-29T04:19:04;2.03;;;1.43;;
8654;SDS011;13500;52.514;13.462;2023-12-29T04:21:34;2.60;;;1.40;;
8654;SDS011;13500;52.514;13.462;2023-12-29T04:24:03;1.60;;;1.23;;
8654;SDS011;13500;52.514;13.462;2023-12-29T04:26:35;2.13;;;1.50;;
8654;SDS011;13500;52.514;13.462;2023-12-29T04:29:06;2.33;;;1.30;;
8654;SDS011;13500;52.514;13.462;2023-12-29T04:31:35;2.17;;;1.40;;
8654;SDS011;13500;52.514;13.462;2023-12-29T04:34:04;1.50;;;1.20;;
8654;SDS011;13500;52.514;13.462;2023-12-29T04:36:33;4.67;;;1.40;;
8654;SDS011;13500;52.514;13.462;2023-12-29T04:39:02;4.00;;;1.27;;
8654;SDS011;13500;52.514;13.462;2023-12-29T04:41:31;1.20;;;1.10;;
8654;SDS011;13500;52.514;13.462;2023-12-29T04:43:59;2.53;;;1.20;;
8654;SDS011;13500;52.514;13.462;2023-12-29T04:46:30;1.90;;;1.17;;
8654;SDS011;13500;52.514;13.462;2023-12-29T04:49:01;1.77;;;1.27;;
8654;SDS011;13500;52.514;13.462;2023-12-29T04:51:29;1.80;;;1.30;;
8654;SDS011;13500;52.514;13.462;2023-12-29T04:53:58;1.73;;;1.20;;
8654;SDS011;13500;52.514;13.462;2023-12-29T04:56:29;2.40;;;1.20;;
8654;SDS011;13500;52.514;13.462;2023-12-29T04:58:58;2.30;;;1.10;;
8654;SDS011;13500;52.514;13.462;2023-12-29T05:01:28;2.67;;;1.40;;
8654;SDS011;13500;52.514;13.462;2023-12-29T05:03:56;1.97;;;1.10;;
8654;SDS011;13500;52.514;13.462;2023-12-29T05:06:26;2.03;;;0.97;;
8654;SDS011;13500;52.514;13.462;2023-12-29T05:08:55;2.50;;;0.90;;
8654;SDS011;13500;52.514;13.462;2023-12-29T05:11:23;2.13;;;1.23;;
8654;SDS011;13500;52.514;13.462;2023-12-29T05:13:51;1.63;;;1.00;;
8654;SDS011;13500;52.514;13.462;2023-12-29T05:16:19;2.73;;;1.13;;
8654;SDS011;13500;52.514;13.462;2023-12-29T05:18:48;2.47;;;1.00;;
8654;SDS011;13500;52.514;13.462;2023-12-29T05:21:16;2.30;;;1.30;;
8654;SDS011;13500;52.514;13.462;2023-12-29T05:23:46;3.83;;;1.20;;
8654;SDS011;13500;52.514;13.462;2023-12-29T05:26:16;2.43;;;1.17;;
8654;SDS011;13500;52.514;13.462;2023-12-29T05:28:46;1.83;;;1.10;;
8654;SDS011;13500;52.514;13.462;2023-12-29T05:31:15;2.03;;;1.00;;
8654;SDS011;13500;52.514;13.462;2023-12-29T05:33:44;2.23;;;1.00;;
8654;SDS011;13500;52.514;13.462;2023-12-29T05:36:13;1.47;;;1.17;;
8654;SDS011;13500;52.514;13.462;2023-12-29T05:38:42;1.50;;;1.13;;
8654;SDS011;13500;52.514;13.462;2023-12-29T05:41:15;1.10;;;1.00;;
8654;SDS011;13500;52.514;13.462;2023-12-29T05:43:45;1.60;;;1.17;;
8654;SDS011;13500;52.514;13.462;2023-12-29T05:46:13;2.40;;;1.20;;
8654;SDS011;13500;52.514;13.462;2023-12-29T05:48:46;2.03;;;1.00;;
8654;SDS011;13500;52.514;13.462;2023-12-29T05:51:14;1.30;;;1.00;;
8654;SDS011;13500;52.514;13.462;2023-12-29T05:53:43;2.00;;;1.07;;
8654;SDS011;13500;52.514;13.462;2023-12-29T05:56:16;1.70;;;0.93;;
8654;SDS011;13500;52.514;13.462;2023-12-29T05:58:47;2.80;;;1.20;;
8654;SDS011;13500;52.514;13.462;2023-12-29T06:01:16;1.27;;;1.00;;
8654;SDS011;13500;52.514;13.462;2023-12-29T06:03:47;2.27;;;1.17;;
8654;SDS011;13500;52.514;13.462;2023-12-29T06:06:15;2.03;;;1.23;;
8654;SDS011;13500;52.514;13.462;2023-12-29T06:08:43;2.33;;;1.27;;
8654;SDS011;13500;52.514;13.462;2023-12-29T06:11:15;1.50;;;1.07;;
8654;SDS011;13500;52.514;13.462;2023-12-29T06:13:45;1.43;;;1.00;;
8654;SDS011;13500;52.514;13.462;2023-12-29T06:16:17;1.20;;;0.90;;
8654;SDS011;13500;52.514;13.462;2023-12-29T06:18:46;1.57;;;1.27;;
8654;SDS011;13500;52.514;13.462;2023-12-29T06:21:14;1.53;;;1.03;;
8654;SDS011;13500;52.514;13.462;2023-12-29T06:23:44;1.67;;;1.07;;
8654;SDS011;13500;52.514;13.462;2023-12-29T06:26:15;1.23;;;1.00;;
8654;SDS011;13500;52.514;13.462;2023-12-29T06:28:45;1.70;;;1.00;;
8654;SDS011;13500;52.514;13.462;2023-12-29T06:31:14;1.70;;;1.10;;
8654;SDS011;13500;52.514;13.462;2023-12-29T06:33:46;2.23;;;1.10;;
8654;SDS011;13500;52.514;13.462;2023-12-29T06:36:19;6.23;;;1.37;;
8654;SDS011;13500;52.514;13.462;2023-12-29T06:38:51;3.17;;;1.10;;
8654;SDS011;13500;52.514;13.462;2023-12-29T06:41:21;2.07;;;1.27;;
8654;SDS011;13500;52.514;13.462;2023-12-29T06:43:54;2.93;;;1.17;;
8654;SDS011;13500;52.514;13.462;2023-12-29T06:46:23;1.00;;;1.00;;
8654;SDS011;13500;52.514;13.462;2023-12-29T06:48:52;2.07;;;1.10;;
8654;SDS011;13500;52.514;13.462;2023-12-29T06:51:21;5.63;;;1.33;;
8654;SDS011;13500;52.514;13.462;2023-12-29T06:53:51;1.53;;;1.10;;
8654;SDS011;13500;52.514;13.462;2023-12-29T06:56:21;1.90;;;1.10;;
8654;SDS011;13500;52.514;13.462;2023-12-29T06:58:50;2.63;;;1.20;;
8654;SDS011;13500;52.514;13.462;2023-12-29T07:01:18;2.30;;;1.03;;
8654;SDS011;13500;52.514;13.462;2023-12-29T07:03:51;2.33;;;1.30;;
8654;SDS011;13500;52.514;13.462;2023-12-29T07:06:20;1.57;;;0.90;;
8654;SDS011;13500;52.514;13.462;2023-12-29T07:08:51;2.03;;;1.23;;
8654;SDS011;13500;52.514;13.462;2023-12-29T07:11:22;1.83;;;1.30;;
8654;SDS011;13500;52.514;13.462;2023-12-29T07:13:51;2.60;;;1.20;;
8654;SDS011;13500;52.514;13.462;2023-12-29T07:16:25;1.43;;;1.20;;
8654;SDS011;13500;52.514;13.462;2023-12-29T07:18:56;1.77;;;1.10;;
8654;SDS011;13500;52.514;13.462;2023-12-29T07:21:26;1.87;;;1.30;;
8654;SDS011;13500;52.514;13.462;2023-12-29T07:23:56;2.23;;;1.30;;
8654;SDS011;13500;52.514;13.462;2023-12-29T07:26:26;3.50;;;1.60;;
8654;SDS011;13500;52.514;13.462;2023-12-29T07:28:54;2.80;;;1.43;;
8654;SDS011;13500;52.514;13.462;2023-12-29T07:31:26;1.70;;;1.20;;
8654;SDS011;13500;52.514;13.462;2023-12-29T07:33:56;3.40;;;1.40;;
8654;SDS011;13500;52.514;13.462;2023-12-29T07:36:28;2.57;;;1.60;;
8654;SDS011;13500;52.514;13.462;2023-12-29T07:38:56;3.17;;;1.70;;
8654;SDS011;13500;52.514;13.462;2023-12-29T07:41:26;1.73;;;1.30;;
8654;SDS011;13500;52.514;13.462;2023-12-29T07:43:56;2.83;;;1.50;;
8654;SDS011;13500;52.514;13.462;2023-12-29T07:46:24;1.80;;;1.40;;
8654;SDS011;13500;52.514;13.462;2023-12-29T07:48:54;1.80;;;1.50;;
8654;SDS011;13500;52.514;13.462;2023-12-29T07:51:22;1.93;;;1.20;;
8654;SDS011;13500;52.514;13.462;2023-12-29T07:53:51;3.73;;;1.50;;
8654;SDS011;13500;52.514;13.462;2023-12-29T07:56:19;1.97;;;1.50;;
8654;SDS011;13500;52.514;13.462;2023-12-29T07:58:49;3.43;;;1.70;;
8654;SDS011;13500;52.514;13.462;2023-12-29T08:01:17;2.70;;;1.67;;
8654;SDS011;13500;52.514;13.462;2023-12-29T08:03:46;3.90;;;1.57;;
8654;SDS011;13500;52.514;13.462;2023-12-29T08:06:17;2.13;;;1.33;;
8654;SDS011;13500;52.514;13.462;2023-12-29T08:08:45;3.40;;;1.53;;
8654;SDS011;13500;52.514;13.462;2023-12-29T08:11:13;4.87;;;1.60;;
8654;SDS011;13500;52.514;13.462;2023-12-29T08:13:44;3.03;;;1.60;;
8654;SDS011;13500;52.514;13.462;2023-12-29T08:16:16;3.50;;;1.70;;
8654;SDS011;13500;52.514;13.462;2023-12-29T08:18:46;2.83;;;1.40;;
8654;SDS011;13500;52.514;13.462;2023-12-29T08:21:18;1.43;;;1.27;;
8654;SDS011;13500;52.514;13.462;2023-12-29T08:23:47;4.63;;;1.50;;
8654;SDS011;13500;52.514;13.462;2023-12-29T08:26:15;2.70;;;1.50;;
8654;SDS011;13500;52.514;13.462;2023-12-29T08:28:43;3.00;;;1.23;;
8654;SDS011;13500;52.514;13.462;2023-12-29T08:31:12;2.37;;;1.40;;
8654;SDS011;13500;52.514;13.462;2023-12-29T08:33:42;2.57;;;1.50;;
8654;SDS011;13500;52.514;13.462;2023-12-29T08:36:11;2.23;;;1.30;;
8654;SDS011;13500;52.514;13.462;2023-12-29T08:38:39;3.30;;;1.50;;
8654;SDS011;13500;52.514;13.462;2023-12-29T08:41:07;3.30;;;1.50;;
8654;SDS011;13500;52.514;13.462;2023-12-29T08:43:36;1.33;;;1.23;;
8654;SDS011;13500;52.514;13.462;2023-12-29T08:46:04;2.30;;;1.30;;
8654;SDS011;13500;52.514;13.462;2023-12-29T08:48:36;5.00;;;1.73;;
8654;SDS011;13500;52.514;13.462;2023-12-29T08:51:06;4.20;;;1.60;;
8654;SDS011;13500;52.514;13.462;2023-12-29T08:53:35;2.80;;;1.30;;
8654;SDS011;13500;52.514;13.462;2023-12-29T08:56:04;4.00;;;1.80;;
8654;SDS011;13500;52.514;13.462;2023-12-29T08:58:33;3.97;;;1.90;;
8654;SDS011;13500;52.514;13.462;2023-12-29T09:01:02;3.53;;;1.60;;
8654;SDS011;13500;52.514;13.462;2023-12-29T09:03:31;4.77;;;1.60;;
8654;SDS011;13500;52.514;13.462;2023-12-29T09:05:59;2.93;;;1.40;;
8654;SDS011;13500;52.514;13.462;2023-12-29T09:08:30;3.23;;;1.70;;
8654;SDS011;13500;52.514;13.462;2023-12-29T09:10:59;3.53;;;1.70;;
8654;SDS011;13500;52.514;13.462;2023-12-29T09:13:27;3.83;;;1.73;;
8654;SDS011;13500;52.514;13.462;2023-12-29T09:15:55;7.00;;;1.50;;
8654;SDS011;13500;52.514;13.462;2023-12-29T09:18:24;4.53;;;1.50;;
8654;SDS011;13500;52.514;13.462;2023-12-29T09:20:52;6.37;;;1.50;;
8654;SDS011;13500;52.514;13.462;2023-12-29T09:23:21;5.63;;;1.70;;
8654;SDS011;13500;52.514;13.462;2023-12-29T09:25:52;4.13;;;2.73;;
8654;SDS011;13500;52.514;13.462;2023-12-29T09:28:21;3.90;;;1.90;;
8654;SDS011;13500;52.514;13.462;2023-12-29T09:30:52;9.33;;;6.67;;
8654;SDS011;13500;52.514;13.462;2023-12-29T09:33:21;12.20;;;9.40;;
8654;SDS011;13500;52.514;13.462;2023-12-29T09:35:52;5.60;;;4.10;;
8654;SDS011;13500;52.514;13.462;2023-12-29T09:38:20;3.67;;;2.70;;
8654;SDS011;13500;52.514;13.462;2023-12-29T09:40:48;12.00;;;10.73;;
8654;SDS011;13500;52.514;13.462;2023-12-29T09:43:18;13.57;;;12.50;;
8654;SDS011;13500;52.514;13.462;2023-12-29T09:45:46;6.33;;;3.57;;
8654;SDS011;13500;52.514;13.462;2023-12-29T09:48:16;5.53;;;2.97;;
8654;SDS011;13500;52.514;13.462;2023-12-29T09:50:47;5.17;;;2.43;;
8654;SDS011;13500;52.514;13.462;2023-12-29T09:53:18;4.20;;;2.30;;
8654;SDS011;13500;52.514;13.462;2023-12-29T09:55:48;3.50;;;1.97;;
8654;SDS011;13500;52.514;13.462;2023-12-29T09:58:20;4.13;;;1.73;;
8654;SDS011;13500;52.514;13.462;2023-12-29T10:00:51;7.20;;;3.10;;
8654;SDS011;13500;52.514;13.462;2023-12-29T10:03:20;14.17;;;7.97;;
8654;SDS011;13500;52.514;13.462;2023-12-29T10:05:50;2.87;;;1.77;;
8654;SDS011;13500;52.514;13.462;2023-12-29T10:08:20;9.33;;;5.00;;
8654;SDS011;13500;52.514;13.462;2023-12-29T10:10:50;5.07;;;2.80;;
8654;SDS011;13500;52.514;13.462;2023-12-29T10:13:23;27.33;;;10.20;;
8654;SDS011;13500;52.514;13.462;2023-12-29T10:15:56;16.73;;;6.53;;
8654;SDS011;13500;52.514;13.462;2023-12-29T10:18:27;16.00;;;5.43;;
8654;SDS011;13500;52.514;13.462;2023-12-29T10:20:59;15.90;;;5.73;;
8654;SDS011;13500;52.514;13.462;2023-12-29T10:23:32;10.53;;;3.60;;
8654;SDS011;13500;52.514;13.462;2023-12-29T10:26:05;11.93;;;4.83;;
8654;SDS011;13500;52.514;13.462;2023-12-29T10:28:40;4.53;;;1.93;;
8654;SDS011;13500;52.514;13.462;2023-12-29T10:31:13;16.27;;;6.43;;
8654;SDS011;13500;52.514;13.462;2023-12-29T10:33:42;14.33;;;5.57;;
8654;SDS011;13500;52.514;13.462;2023-12-29T10:36:17;5.50;;;2.63;;
8654;SDS011;13500;52.514;13.462;2023-12-29T10:38:46;18.50;;;7.37;;
8654;SDS011;13500;52.514;13.462;2023-12-29T10:41:16;24.70;;;9.13;;
8654;SDS011;13500;52.514;13.462;2023-12-29T10:43:50;29.50;;;10.60;;
8654;SDS011;13500;52.514;13.462;2023-12-29T10:46:19;4.77;;;1.90;;
8654;SDS011;13500;52.514;13.462;2023-12-29T10:48:51;4.77;;;2.33;;
8654;SDS011;13500;52.514;13.462;2023-12-29T10:51:26;12.43;;;5.80;;
8654;SDS011;13500;52.514;13.462;2023-12-29T10:53:55;15.43;;;5.10;;
8654;SDS011;13500;52.514;13.462;2023-12-29T10:56:27;3.83;;;1.67;;
8654;SDS011;13500;52.514;13.462;2023-12-29T10:58:58;17.30;;;6.80;;
8654;SDS011;13500;52.514;13.462;2023-12-29T11:01:31;5.10;;;2.13;;
8654;SDS011;13500;52.514;13.462;2023-12-29T11:04:02;12.57;;;5.60;;
8654;SDS011;13500;52.514;13.462;2023-12-29T11:06:39;4.73;;;2.20;;
8654;SDS011;13500;52.514;13.462;2023-12-29T11:09:10;28.90;;;12.20;;
8654;SDS011;13500;52.514;13.462;2023-12-29T11:11:39;23.60;;;9.20;;
8654;SDS011;13500;52.514;13.462;2023-12-29T11:14:09;18.23;;;8.80;;
8654;SDS011;13500;52.514;13.462;2023-12-29T11:16:41;18.37;;;7.97;;
8654;SDS011;13500;52.514;13.462;2023-12-29T11:19:11;3.13;;;1.50;;
8654;SDS011;13500;52.514;13.462;2023-12-29T11:21:42;6.00;;;3.53;;
8654;SDS011;13500;52.514;13.462;2023-12-29T11:24:11;8.90;;;3.90;;
8654;SDS011;13500;52.514;13.462;2023-12-29T11:26:49;7.63;;;4.37;;
8654;SDS011;13500;52.514;13.462;2023-12-29T11:29:21;4.77;;;2.07;;
8654;SDS011;13500;52.514;13.462;2023-12-29T11:31:50;9.50;;;4.20;;
8654;SDS011;13500;52.514;13.462;2023-12-29T11:34:26;3.93;;;2.63;;
8654;SDS011;13500;52.514;13.462;2023-12-29T11:37:03;8.37;;;4.67;;
8654;SDS011;13500;52.514;13.462;2023-12-29T11:39:43;5.20;;;2.87;;
8654;SDS011;13500;52.514;13.462;2023-12-29T11:42:19;4.37;;;2.37;;
8654;SDS011;13500;52.514;13.462;2023-12-29T11:44:50;3.13;;;1.80;;
8654;SDS011;13500;52.514;13.462;2023-12-29T11:47:34;6.57;;;2.00;;
8654;SDS011;13500;52.514;13.462;2023-12-29T11:50:05;2.43;;;1.73;;
8654;SDS011;13500;52.514;13.462;2023-12-29T11:52:37;4.57;;;1.90;;
8654;SDS011;13500;52.514;13.462;2023-12-29T11:55:07;5.13;;;1.83;;
8654;SDS011;13500;52.514;13.462;2023-12-29T11:57:37;4.77;;;1.80;;
8654;SDS011;13500;52.514;13.462;2023-12-29T12:00:09;3.90;;;1.60;;
8654;SDS011;13500;52.514;13.462;2023-12-29T12:02:38;3.00;;;1.73;;
8654;SDS011;13500;52.514;13.462;2023-12-29T12:05:08;2.77;;;1.40;;
8654;SDS011;13500;52.514;13.462;2023-12-29T12:07:56;5.23;;;2.30;;
8654;SDS011;13500;52.514;13.462;2023-12-29T12:10:32;3.63;;;1.93;;
8654;SDS011;13500;52.514;13.462;2023-12-29T12:13:05;4.07;;;2.40;;
8654;SDS011;13500;52.514;13.462;2023-12-29T12:15:38;4.00;;;1.90;;
8654;SDS011;13500;52.514;13.462;2023-12-29T12:18:10;3.60;;;1.97;;
8654;SDS011;13500;52.514;13.462;2023-12-29T12:20:41;5.10;;;1.80;;
8654;SDS011;13500;52.514;13.462;2023-12-29T12:23:11;3.20;;;1.70;;
8654;SDS011;13500;52.514;13.462;2023-12-29T12:25:42;4.07;;;1.90;;
8654;SDS011;13500;52.514;13.462;2023-12-29T12:28:14;4.47;;;2.20;;
8654;SDS011;13500;52.514;13.462;2023-12-29T12:30:53;4.97;;;1.87;;
8654;SDS011;13500;52.514;13.462;2023-12-29T12:33:33;4.63;;;1.70;;
8654;SDS011;13500;52.514;13.462;2023-12-29T12:36:02;4.50;;;1.77;;
8654;SDS011;13500;52.514;13.462;2023-12-29T12:38:33;2.93;;;1.40;;
8654;SDS011;13500;52.514;13.462;2023-12-29T12:41:09;3.00;;;1.70;;
8654;SDS011;13500;52.514;13.462;2023-12-29T12:43:45;3.40;;;1.77;;
8654;SDS011;13500;52.514;13.462;2023-12-29T12:46:24;3.30;;;1.70;;
8654;SDS011;13500;52.514;13.462;2023-12-29T12:48:55;2.90;;;1.40;;
8654;SDS011;13500;52.514;13.462;2023-12-29T12:51:30;4.33;;;1.60;;
8654;SDS011;13500;52.514;13.462;2023-12-29T12:53:58;5.57;;;1.40;;
8654;SDS011;13500;52.514;13.462;2023-12-29T12:56:27;3.33;;;1.67;;
8654;SDS011;13500;52.514;13.462;2023-12-29T12:58:57;4.07;;;1.80;;
8654;SDS011;13500;52.514;13.462;2023-12-29T13:01:28;3.30;;;1.70;;
8654;SDS011;13500;52.514;13.462;2023-12-29T13:03:59;4.07;;;2.10;;
8654;SDS011;13500;52.514;13.462;2023-12-29T13:06:29;4.37;;;1.97;;
8654;SDS011;13500;52.514;13.462;2023-12-29T13:08:58;5.67;;;1.90;;
8654;SDS011;13500;52.514;13.462;2023-12-29T13:11:28;4.50;;;2.20;;
8654;SDS011;13500;52.514;13.462;2023-12-29T13:13:56;4.97;;;2.10;;
8654;SDS011;13500;52.514;13.462;2023-12-29T13:16:32;5.43;;;2.30;;
8654;SDS011;13500;52.514;13.462;2023-12-29T13:21:47;6.33;;;2.10;;
8654;SDS011;13500;52.514;13.462;2023-12-29T13:24:17;4.97;;;2.33;;
8654;SDS011;13500;52.514;13.462;2023-12-29T13:26:45;4.63;;;2.40;;
8654;SDS011;13500;52.514;13.462;2023-12-29T13:29:19;5.27;;;2.23;;
8654;SDS011;13500;52.514;13.462;2023-12-29T13:31:51;3.47;;;1.73;;
8654;SDS011;13500;52.514;13.462;2023-12-29T13:34:27;5.43;;;2.47;;
8654;SDS011;13500;52.514;13.462;2023-12-29T13:37:04;4.43;;;1.80;;
8654;SDS011;13500;52.514;13.462;2023-12-29T13:39:51;3.13;;;1.60;;
8654;SDS011;13500;52.514;13.462;2023-12-29T13:42:22;3.30;;;1.70;;
8654;SDS011;13500;52.514;13.462;2023-12-29T13:44:55;3.57;;;2.00;;
8654;SDS011;13500;52.514;13.462;2023-12-29T13:47:27;5.67;;;1.80;;
8654;SDS011;13500;52.514;13.462;2023-12-29T13:49:57;3.70;;;1.60;;
8654;SDS011;13500;52.514;13.462;2023-12-29T13:52:29;2.43;;;1.57;;
8654;SDS011;13500;52.514;13.462;2023-12-29T13:54:59;2.80;;;1.70;;
8654;SDS011;13500;52.514;13.462;2023-12-29T13:57:30;3.63;;;2.17;;
8654;SDS011;13500;52.514;13.462;2023-12-29T14:00:13;9.50;;;4.57;;
8654;SDS011;13500;52.514;13.462;2023-12-29T14:02:44;9.80;;;4.27;;
8654;SDS011;13500;52.514;13.462;2023-12-29T14:05:23;10.70;;;3.27;;
8654;SDS011;13500;52.514;13.462;2023-12-29T14:07:54;12.63;;;4.43;;
8654;SDS011;13500;52.514;13.462;2023-12-29T14:10:29;17.67;;;7.17;;
8654;SDS011;13500;52.514;13.462;2023-12-29T14:13:05;15.90;;;6.87;;
8654;SDS011;13500;52.514;13.462;2023-12-29T14:15:35;14.17;;;4.63;;
8654;SDS011;13500;52.514;13.462;2023-12-29T14:18:07;5.50;;;3.07;;
8654;SDS011;13500;52.514;13.462;2023-12-29T14:20:50;18.13;;;7.43;;
8654;SDS011;13500;52.514;13.462;2023-12-29T14:23:22;19.00;;;8.27;;
8654;SDS011;13500;52.514;13.462;2023-12-29T14:25:50;11.77;;;5.97;;
8654;SDS011;13500;52.514;13.462;2023-12-29T14:28:19;4.73;;;2.87;;
8654;SDS011;13500;52.514;13.462;2023-12-29T14:30:48;3.63;;;1.70;;
8654;SDS011;13500;52.514;13.462;2023-12-29T14:33:20;2.33;;;1.67;;
8654;SDS011;13500;52.514;13.462;2023-12-29T14:35:52;19.10;;;7.67;;
8654;SDS011;13500;52.514;13.462;2023-12-29T14:38:23;16.37;;;7.50;;
8654;SDS011;13500;52.514;13.462;2023-12-29T14:40:51;5.57;;;2.77;;
8654;SDS011;13500;52.514;13.462;2023-12-29T14:43:20;6.27;;;3.50;;
8654;SDS011;13500;52.514;13.462;2023-12-29T14:45:50;7.23;;;3.07;;
8654;SDS011;13500;52.514;13.462;2023-12-29T14:48:20;12.07;;;5.23;;
8654;SDS011;13500;52.514;13.462;2023-12-29T14:50:53;11.73;;;5.47;;
8654;SDS011;13500;52.514;13.462;2023-12-29T14:53:22;6.03;;;2.53;;
8654;SDS011;13500;52.514;13.462;2023-12-29T14:55:54;20.30;;;10.07;;
8654;SDS011;13500;52.514;13.462;2023-12-29T14:58:23;3.87;;;2.47;;
8654;SDS011;13500;52.514;13.462;2023-12-29T15:00:51;2.73;;;1.30;;
8654;SDS011;13500;52.514;13.462;2023-12-29T15:03:21;10.40;;;5.73;;
8654;SDS011;13500;52.514;13.462;2023-12-29T15:05:50;7.53;;;2.83;;
8654;SDS011;13500;52.514;13.462;2023-12-29T15:08:20;3.73;;;2.10;;